Time;durP1;ratioP1;P1;durP2;ratioP2;P2;SDS_P1;SDS_P2;PMS_P1;PMS_P2;Temp;Humidity;BMP_temperature;BMP_pressure;BME280_temperature;BME280_humidity;BME280_pressure;Samples;Min_cycle;Max_cycle;Signal;HPM_P1;HPM_P2
2021/01/28 00:00:11;;;;;;;15.00;10.50;;;2.70;99.90;;;;;;5069133;28;20036;-74
2021/01/28 00:02:37;;;;;;;15.48;11.45;;;2.70;99.90;;;;;;5063557;28;20111;-74
2021/01/28 00:05:07;;;;;;;11.32;8.68;;;2.70;99.90;;;;;;5069167;28;20029;-74
2021/01/28 00:07:33;;;;;;;13.30;9.18;;;2.70;99.90;;;;;;5072374;28;20013;-74
2021/01/28 00:09:59;;;;;;;17.50;11.30;;;2.60;99.90;;;;;;5063946;28;20104;-74
2021/01/28 00:12:25;;;;;;;17.30;11.10;;;2.60;99.90;;;;;;5071753;28;20130;-74
2021/01/28 00:14:51;;;;;;;17.45;11.95;;;2.60;99.90;;;;;;5068221;28;20057;-74
2021/01/28 00:17:17;;;;;;;16.52;11.82;;;2.50;99.90;;;;;;5071321;28;20116;-73
2021/01/28 00:19:43;;;;;;;16.35;11.43;;;2.50;99.90;;;;;;5074764;28;20064;-73
2021/01/28 00:22:09;;;;;;;15.95;10.55;;;2.50;99.90;;;;;;5069552;28;20415;-73
2021/01/28 00:24:35;;;;;;;14.00;10.15;;;2.50;99.90;;;;;;5071236;28;20024;-74
2021/01/28 00:27:01;;;;;;;16.02;10.38;;;2.50;99.90;;;;;;5071554;28;20021;-74
2021/01/28 00:29:26;;;;;;;11.57;9.38;;;2.50;99.90;;;;;;5071483;28;20028;-75
2021/01/28 00:31:53;;;;;;;12.98;9.40;;;2.60;99.90;;;;;;5058736;28;20071;-74
2021/01/28 00:34:19;;;;;;;11.68;8.25;;;2.50;99.90;;;;;;5064943;28;20453;-74
2021/01/28 00:36:45;;;;;;;11.80;9.07;;;2.60;99.90;;;;;;5069426;28;20115;-76
2021/01/28 00:39:11;;;;;;;17.85;10.20;;;2.60;99.90;;;;;;5062490;28;20017;-74
2021/01/28 00:41:37;;;;;;;12.45;8.63;;;2.60;99.90;;;;;;5069795;28;20020;-73
2021/01/28 00:44:03;;;;;;;11.32;9.27;;;2.60;99.90;;;;;;5055383;28;20071;-74
2021/01/28 00:46:29;;;;;;;13.43;7.97;;;2.50;99.90;;;;;;5063360;28;20474;-74
2021/01/28 00:48:55;;;;;;;17.48;9.30;;;2.50;99.90;;;;;;5064793;28;20032;-74
2021/01/28 00:51:20;;;;;;;13.73;8.50;;;2.50;99.90;;;;;;5067522;28;20025;-74
2021/01/28 00:53:46;;;;;;;11.35;8.73;;;2.50;99.90;;;;;;5053889;28;20135;-74
2021/01/28 00:56:12;;;;;;;16.00;9.63;;;2.50;99.90;;;;;;5065478;28;20429;-74
2021/01/28 00:58:38;;;;;;;13.85;8.60;;;2.50;99.90;;;;;;5071594;28;20028;-74
2021/01/28 01:01:05;;;;;;;13.32;9.57;;;2.50;99.90;;;;;;5073744;28;20017;-74
2021/01/28 01:03:31;;;;;;;12.18;8.68;;;2.50;99.90;;;;;;5064454;28;20118;-74
2021/01/28 01:05:57;;;;;;;13.75;8.52;;;2.40;99.90;;;;;;5063671;28;20470;-73
2021/01/28 01:08:30;;;;;;;15.63;9.98;;;2.40;99.90;;;;;;5062910;28;20029;-73
2021/01/28 01:10:58;;;;;;;10.35;7.53;;;2.40;99.90;;;;;;5060846;28;20024;-74
2021/01/28 01:13:28;;;;;;;14.30;7.63;;;2.40;99.90;;;;;;5066619;28;20063;-74
2021/01/28 01:16:41;;;;;;;10.48;8.48;;;2.30;99.90;;;;;;5063638;28;20021;-74
2021/01/28 01:19:09;;;;;;;11.15;8.57;;;2.40;99.90;;;;;;5063421;28;20032;-74
2021/01/28 01:21:39;;;;;;;9.02;7.63;;;2.30;99.90;;;;;;5062415;28;20016;-74
2021/01/28 01:24:25;;;;;;;;;;;;;;;;;;;;;
2021/01/28 01:27:36;;;;;;;12.80;8.95;;;2.40;99.90;;;;;;5071765;28;20038;-74
2021/01/28 01:30:07;;;;;;;12.80;8.43;;;2.40;99.90;;;;;;5073522;28;20040;-73
2021/01/28 01:32:33;;;;;;;12.88;8.90;;;2.30;99.90;;;;;;5068475;28;20040;-73
2021/01/28 01:34:58;;;;;;;12.07;8.52;;;2.20;99.90;;;;;;5068723;28;20051;-73
2021/01/28 01:37:25;;;;;;;9.95;8.15;;;2.30;99.90;;;;;;5063012;28;20487;-74
2021/01/28 01:39:51;;;;;;;11.20;9.20;;;2.30;99.90;;;;;;5068480;28;20087;-73
2021/01/28 01:42:18;;;;;;;11.27;8.07;;;2.30;99.90;;;;;;5061712;28;20063;-74
2021/01/28 01:44:44;;;;;;;10.23;8.82;;;2.30;99.90;;;;;;5056228;28;20013;-73
2021/01/28 01:47:30;;;;;;;11.90;8.65;;;2.30;99.90;;;;;;5062236;28;20025;-73
2021/01/28 01:50:43;;;;;;;11.80;7.07;;;2.30;99.90;;;;;;5067297;28;20021;-74
2021/01/28 01:53:23;;;;;;;13.02;8.27;;;2.40;99.90;;;;;;5062254;28;20025;-73
2021/01/28 01:56:04;;;;;;;11.43;9.25;;;2.30;99.90;;;;;;5063465;28;20024;-74
2021/01/28 01:58:48;;;;;;;14.57;9.55;;;2.30;99.90;;;;;;5071165;28;20032;-74
2021/01/28 02:01:15;;;;;;;12.63;9.55;;;2.30;99.90;;;;;;5059582;28;20036;-73
2021/01/28 02:03:43;;;;;;;12.95;9.23;;;2.30;99.90;;;;;;5062898;28;20033;-74
2021/01/28 02:06:20;;;;;;;13.13;8.95;;;2.20;99.90;;;;;;5060149;28;20047;-73
2021/01/28 02:08:52;;;;;;;13.15;9.45;;;2.20;99.90;;;;;;5066843;28;20103;-74
2021/01/28 02:11:21;;;;;;;12.70;9.18;;;2.20;99.90;;;;;;5066873;28;20104;-74
2021/01/28 02:13:49;;;;;;;12.98;8.85;;;2.20;99.90;;;;;;5070065;28;20060;-74
2021/01/28 02:16:18;;;;;;;11.30;8.52;;;2.20;99.90;;;;;;5067434;28;20029;-73
2021/01/28 02:18:45;;;;;;;10.43;8.60;;;2.10;99.90;;;;;;5058673;28;20036;-73
2021/01/28 02:21:14;;;;;;;11.07;8.15;;;2.10;99.90;;;;;;5065670;28;20068;-73
2021/01/28 02:23:40;;;;;;;13.10;8.48;;;2.10;99.90;;;;;;5074852;28;20031;-74
2021/01/28 02:26:07;;;;;;;12.93;9.48;;;2.20;99.90;;;;;;5073693;28;20457;-73
2021/01/28 02:28:33;;;;;;;16.20;9.55;;;2.30;99.90;;;;;;5072950;28;20029;-73
2021/01/28 02:31:02;;;;;;;14.98;8.48;;;2.20;99.90;;;;;;5076986;28;20027;-73
2021/01/28 02:33:51;;;;;;;9.85;8.77;;;2.20;99.90;;;;;;5074850;28;20041;-74
2021/01/28 02:36:17;;;;;;;12.43;8.15;;;2.20;99.90;;;;;;5074372;28;20661;-75
2021/01/28 02:38:43;;;;;;;15.65;10.02;;;2.10;99.90;;;;;;5077449;28;20028;-74
2021/01/28 02:41:11;;;;;;;16.80;8.52;;;2.10;99.90;;;;;;5076270;28;20029;-73
2021/01/28 02:43:37;;;;;;;15.38;9.63;;;2.10;99.90;;;;;;5075770;28;20034;-73
2021/01/28 02:46:14;;;;;;;11.00;8.43;;;2.20;99.90;;;;;;5076189;28;20025;-71
2021/01/28 02:48:41;;;;;;;12.20;8.82;;;2.20;99.90;;;;;;5075081;28;20024;-72
2021/01/28 02:51:08;;;;;;;9.55;8.40;;;2.30;99.90;;;;;;5076255;28;20274;-71
2021/01/28 02:53:43;;;;;;;14.55;8.60;;;2.20;99.90;;;;;;5076111;28;20028;-71
2021/01/28 02:56:09;;;;;;;10.98;8.40;;;2.10;99.90;;;;;;5073109;28;20112;-70
2021/01/28 02:58:35;;;;;;;13.30;9.13;;;2.10;99.90;;;;;;5071978;28;20071;-71
2021/01/28 03:01:02;;;;;;;14.18;8.75;;;2.10;99.90;;;;;;5073574;28;20028;-71
2021/01/28 03:03:28;;;;;;;13.75;9.00;;;2.20;99.90;;;;;;5075506;28;20064;-71
2021/01/28 03:05:55;;;;;;;14.43;9.48;;;2.30;99.90;;;;;;5075277;28;20078;-71
2021/01/28 03:08:23;;;;;;;9.45;7.78;;;2.20;99.90;;;;;;5072684;28;20031;-71
2021/01/28 03:10:51;;;;;;;13.07;9.48;;;2.20;99.90;;;;;;5075461;28;20024;-71
2021/01/28 03:13:19;;;;;;;10.65;7.90;;;2.20;99.90;;;;;;5075962;28;20032;-71
2021/01/28 03:15:45;;;;;;;11.00;9.25;;;2.20;99.90;;;;;;5075739;28;20032;-71
2021/01/28 03:18:12;;;;;;;11.02;8.77;;;2.10;99.90;;;;;;5075900;28;20040;-71
2021/01/28 03:20:38;;;;;;;11.23;8.40;;;2.10;99.90;;;;;;5076011;28;20071;-71
2021/01/28 03:23:05;;;;;;;10.38;7.95;;;2.10;99.90;;;;;;5075332;28;20016;-71
2021/01/28 03:25:32;;;;;;;12.50;8.90;;;2.10;99.90;;;;;;5075360;28;20024;-71
2021/01/28 03:27:58;;;;;;;12.50;8.98;;;2.10;99.90;;;;;;5073198;28;20074;-71
2021/01/28 03:30:28;;;;;;;11.00;7.75;;;2.10;99.90;;;;;;5073687;28;20542;-71
2021/01/28 03:32:55;;;;;;;13.27;9.50;;;2.10;99.90;;;;;;5075709;28;20020;-71
2021/01/28 03:35:23;;;;;;;11.05;9.40;;;2.10;99.90;;;;;;5074301;28;20035;-71
2021/01/28 03:37:50;;;;;;;11.57;8.85;;;2.10;99.90;;;;;;5075616;28;20029;-70
2021/01/28 03:40:20;;;;;;;10.77;8.20;;;2.10;99.90;;;;;;5074961;28;20025;-71
2021/01/28 03:42:46;;;;;;;13.00;10.18;;;2.10;99.90;;;;;;5075214;28;20062;-72
2021/01/28 03:45:16;;;;;;;12.10;9.50;;;2.10;99.90;;;;;;5076587;28;20016;-71
2021/01/28 03:47:42;;;;;;;12.05;9.48;;;2.10;99.90;;;;;;5078845;28;20111;-72
2021/01/28 03:50:11;;;;;;;11.05;9.02;;;2.10;99.90;;;;;;5075321;28;20096;-71
2021/01/28 03:52:37;;;;;;;11.63;9.45;;;2.10;99.90;;;;;;5075430;28;20029;-72
2021/01/28 03:55:04;;;;;;;10.85;8.88;;;2.00;99.90;;;;;;5074718;28;20036;-72
2021/01/28 03:57:30;;;;;;;10.32;8.20;;;1.90;99.90;;;;;;5073833;28;20029;-72
2021/01/28 03:59:56;;;;;;;13.35;9.32;;;1.90;99.90;;;;;;5073174;28;20031;-72
2021/01/28 04:02:22;;;;;;;12.25;9.88;;;1.90;99.90;;;;;;5074302;28;20035;-72
2021/01/28 04:04:48;;;;;;;10.05;9.02;;;1.80;99.90;;;;;;5074742;28;20052;-72
2021/01/28 04:07:14;;;;;;;9.55;8.10;;;1.80;99.90;;;;;;5074789;28;20029;-72
2021/01/28 04:09:40;;;;;;;13.07;8.75;;;1.80;99.90;;;;;;5074374;28;20032;-72
2021/01/28 04:12:06;;;;;;;9.27;6.80;;;1.90;99.90;;;;;;5074466;28;20548;-72
2021/01/28 04:14:32;;;;;;;11.50;7.78;;;2.10;99.90;;;;;;5073074;28;20094;-71
2021/01/28 04:16:58;;;;;;;11.52;7.18;;;2.20;99.90;;;;;;5074349;28;20036;-72
2021/01/28 04:19:24;;;;;;;9.07;7.82;;;2.10;99.90;;;;;;5074099;28;20040;-72
2021/01/28 04:21:50;;;;;;;10.52;8.13;;;2.20;99.90;;;;;;5071950;28;20027;-72
2021/01/28 04:24:19;;;;;;;10.68;7.72;;;2.10;99.90;;;;;;5074052;28;20017;-72
2021/01/28 04:26:45;;;;;;;8.20;6.50;;;2.10;99.90;;;;;;5075817;28;20104;-71
2021/01/28 04:29:11;;;;;;;10.68;7.50;;;2.10;99.90;;;;;;5073508;28;20114;-73
2021/01/28 04:31:38;;;;;;;9.82;7.30;;;2.10;99.90;;;;;;5073819;28;20031;-72
2021/01/28 04:34:04;;;;;;;11.50;7.85;;;2.00;99.90;;;;;;5073529;28;20024;-72
2021/01/28 04:36:30;;;;;;;10.13;7.50;;;2.00;99.90;;;;;;5073311;28;20055;-75
2021/01/28 04:39:05;;;;;;;10.88;8.65;;;2.00;99.90;;;;;;5072710;28;20024;-72
2021/01/28 04:41:32;;;;;;;9.52;7.28;;;2.00;99.90;;;;;;5073901;28;20039;-72
2021/01/28 04:44:00;;;;;;;11.82;7.95;;;2.10;99.90;;;;;;5073632;28;20024;-72
2021/01/28 04:46:39;;;;;;;9.57;6.97;;;2.10;99.90;;;;;;5071436;28;20054;-72
2021/01/28 04:49:08;;;;;;;8.80;6.82;;;2.10;99.90;;;;;;5067760;28;20438;-71
2021/01/28 04:51:34;;;;;;;8.88;7.20;;;2.10;99.90;;;;;;5070232;28;20021;-72
2021/01/28 04:54:32;;;;;;;8.65;6.20;;;2.00;99.90;;;;;;5072767;28;20107;-71
2021/01/28 04:57:03;;;;;;;9.13;6.45;;;2.10;99.90;;;;;;5072338;28;20032;-71
2021/01/28 04:59:35;;;;;;;8.45;6.88;;;2.00;99.90;;;;;;5072551;28;20048;-76
2021/01/28 05:02:06;;;;;;;7.80;5.65;;;2.00;99.90;;;;;;5070963;28;20036;-71
2021/01/28 05:04:39;;;;;;;9.43;7.00;;;2.00;99.90;;;;;;5072659;28;20090;-71
2021/01/28 05:07:08;;;;;;;8.35;6.35;;;2.00;99.90;;;;;;5072936;28;20012;-72
2021/01/28 05:09:35;;;;;;;8.73;6.85;;;2.00;99.90;;;;;;5073358;28;20475;-72
2021/01/28 05:12:01;;;;;;;9.35;6.95;;;2.00;99.90;;;;;;5072944;28;20050;-71
2021/01/28 05:14:33;;;;;;;7.85;6.60;;;2.00;99.90;;;;;;5071733;28;20054;-72
2021/01/28 05:17:00;;;;;;;;;;;2.00;99.90;;;;;;5073268;28;20024;-72
2021/01/28 05:19:38;;;;;;;8.93;6.07;;;1.90;99.90;;;;;;5069343;28;19995;-72
2021/01/28 05:22:32;;;;;;;7.53;6.32;;;1.90;99.90;;;;;;5067052;28;20077;-71
2021/01/28 05:25:10;;;;;;;13.18;6.45;;;1.90;99.90;;;;;;5072983;28;20021;-72
2021/01/28 05:27:38;;;;;;;10.52;6.80;;;1.90;99.90;;;;;;5071099;28;20487;-71
2021/01/28 05:30:08;;;;;;;7.72;6.18;;;1.90;99.90;;;;;;5071102;28;20412;-71
2021/01/28 05:32:42;;;;;;;10.77;6.25;;;1.90;99.90;;;;;;5073024;28;20028;-72
2021/01/28 05:35:22;;;;;;;6.28;4.78;;;1.90;99.90;;;;;;5072725;28;20021;-72
2021/01/28 05:38:02;;;;;;;7.55;6.00;;;2.00;99.90;;;;;;5072537;28;20027;-71
2021/01/28 05:40:28;;;;;;;8.65;6.05;;;2.00;99.90;;;;;;5072945;28;20402;-71
2021/01/28 05:42:54;;;;;;;10.07;6.32;;;2.00;99.90;;;;;;5072987;28;20102;-71
2021/01/28 05:45:23;;;;;;;6.35;5.50;;;2.10;99.90;;;;;;5071875;28;20103;-72
2021/01/28 05:47:54;;;;;;;8.27;6.35;;;2.10;99.90;;;;;;5067571;28;20270;-72
2021/01/28 05:50:30;;;;;;;11.32;6.13;;;2.10;99.90;;;;;;5092158;28;20390;-71
2021/01/28 05:53:15;;;;;;;7.97;6.03;;;2.00;99.90;;;;;;5073011;28;20086;-72
2021/01/28 05:55:44;;;;;;;8.82;6.05;;;2.00;99.90;;;;;;5072619;28;20031;-72
2021/01/28 05:58:28;;;;;;;7.65;5.25;;;2.10;99.90;;;;;;5070931;28;20028;-75
2021/01/28 06:01:08;;;;;;;11.20;6.65;;;2.10;99.90;;;;;;5072836;28;20032;-71
2021/01/28 06:03:58;;;;;;;9.70;6.63;;;2.10;99.90;;;;;;5072340;28;20041;-71
2021/01/28 06:06:56;;;;;;;10.40;6.75;;;2.00;99.90;;;;;;5072359;28;20113;-76
2021/01/28 06:09:40;;;;;;;8.75;6.00;;;1.90;99.90;;;;;;5072701;28;20509;-71
2021/01/28 06:12:46;;;;;;;17.17;7.55;;;1.90;99.90;;;;;;5072906;28;20028;-72
2021/01/28 06:16:10;;;;;;;17.67;6.53;;;1.80;99.90;;;;;;5061236;28;20032;-72
2021/01/28 06:19:12;;;;;;;12.60;6.35;;;1.90;99.90;;;;;;4993893;28;20041;-72
2021/01/28 06:21:58;;;;;;;13.77;6.87;;;1.90;99.90;;;;;;5051490;28;20041;-73
2021/01/28 06:24:43;;;;;;;14.52;8.45;;;1.90;99.90;;;;;;5070627;28;20082;-72
2021/01/28 06:27:37;;;;;;;11.70;7.70;;;1.90;99.90;;;;;;5072409;28;20031;-72
2021/01/28 06:30:40;;;;;;;11.40;7.90;;;1.90;99.90;;;;;;5072028;28;20020;-72
2021/01/28 06:33:40;;;;;;;17.92;8.75;;;1.90;99.90;;;;;;5071948;28;20107;-71
2021/01/28 06:36:20;;;;;;;9.05;6.90;;;1.90;99.90;;;;;;5072079;28;20025;-71
2021/01/28 06:39:02;;;;;;;11.50;7.85;;;1.90;99.90;;;;;;5072232;28;20074;-72
2021/01/28 06:41:32;;;;;;;14.77;8.43;;;2.00;99.90;;;;;;5057278;28;20021;-72
2021/01/28 06:44:29;;;;;;;14.98;6.97;;;2.00;99.90;;;;;;5063093;28;20028;-71
2021/01/28 06:47:01;;;;;;;20.48;7.63;;;2.10;99.90;;;;;;5071608;28;20112;-70
2021/01/28 06:49:27;;;;;;;;;;;2.10;99.90;;;;;;5071512;28;20490;-72
2021/01/28 06:52:12;;;;;;;12.40;7.80;;;2.10;99.90;;;;;;5071505;28;19905;-71
2021/01/28 06:54:57;;;;;;;12.80;7.68;;;2.20;99.90;;;;;;5072123;28;20028;-72
2021/01/28 06:57:38;;;;;;;16.55;7.70;;;2.40;99.90;;;;;;5072164;28;20024;-72
2021/01/28 07:00:33;;;;;;;9.30;7.17;;;2.40;99.90;;;;;;5071818;28;20043;-72
2021/01/28 07:03:14;;;;;;;9.98;6.50;;;2.50;99.90;;;;;;5063453;28;20095;-72
2021/01/28 07:06:02;;;;;;;10.00;7.10;;;2.60;99.90;;;;;;5074801;28;20028;-72
2021/01/28 07:08:34;;;;;;;11.48;7.07;;;2.80;99.90;;;;;;5077319;28;20070;-72
2021/01/28 07:11:01;;;;;;;7.93;6.38;;;2.90;99.90;;;;;;5073966;28;20028;-72
2021/01/28 07:13:32;;;;;;;10.63;8.20;;;3.00;99.90;;;;;;5075831;28;20086;-73
2021/01/28 07:16:17;;;;;;;13.30;8.15;;;3.00;99.90;;;;;;5075721;28;20025;-73
2021/01/28 07:18:48;;;;;;;12.10;8.38;;;2.90;99.90;;;;;;5075611;28;20028;-72
2021/01/28 07:21:35;;;;;;;11.23;7.35;;;3.00;99.90;;;;;;5074451;28;20043;-74
2021/01/28 07:24:26;;;;;;;11.95;7.60;;;3.00;99.90;;;;;;5075430;28;20035;-72
2021/01/28 07:27:10;;;;;;;16.67;8.17;;;3.10;99.90;;;;;;5076394;28;20024;-72
2021/01/28 07:29:44;;;;;;;13.90;8.35;;;3.20;99.90;;;;;;5079099;28;20094;-74
2021/01/28 07:32:26;;;;;;;15.82;9.90;;;3.30;99.90;;;;;;5078207;28;20048;-73
2021/01/28 07:35:26;;;;;;;12.77;8.82;;;3.50;99.90;;;;;;5071280;28;20025;-73
2021/01/28 07:38:15;;;;;;;15.05;8.60;;;3.50;99.90;;;;;;5071248;28;20028;-73
2021/01/28 07:40:58;;;;;;;10.57;7.78;;;3.70;99.90;;;;;;5070322;28;20033;-73
2021/01/28 07:43:51;;;;;;;19.00;9.65;;;3.60;99.90;;;;;;5074707;28;20036;-73
2021/01/28 07:46:26;;;;;;;16.35;11.45;;;3.60;99.90;;;;;;5073107;28;20044;-72
2021/01/28 07:49:13;;;;;;;14.77;11.57;;;3.70;99.90;;;;;;5072117;28;20036;-72
2021/01/28 07:51:45;;;;;;;18.55;10.90;;;3.80;99.90;;;;;;5055084;28;20029;-72
2021/01/28 07:54:26;;;;;;;17.45;9.23;;;3.80;99.90;;;;;;5071253;28;20028;-72
2021/01/28 07:57:02;;;;;;;20.98;10.73;;;4.00;99.90;;;;;;5072659;28;20120;-74
2021/01/28 07:59:54;;;;;;;15.95;11.20;;;4.10;99.90;;;;;;5070890;28;20375;-73
2021/01/28 08:02:24;;;;;;;13.48;9.57;;;4.20;99.90;;;;;;5074642;28;20385;-73
2021/01/28 08:05:09;;;;;;;13.93;9.55;;;4.40;99.90;;;;;;5074574;28;20031;-74
2021/01/28 08:07:42;;;;;;;13.05;9.90;;;4.50;99.90;;;;;;5074882;28;20351;-73
2021/01/28 08:10:34;;;;;;;15.52;11.68;;;4.70;99.90;;;;;;5068176;28;20391;-74
2021/01/28 08:13:08;;;;;;;25.73;13.73;;;4.80;99.90;;;;;;5065591;28;20486;-73
2021/01/28 08:15:49;;;;;;;21.58;11.30;;;4.80;99.90;;;;;;5081150;28;20035;-74
2021/01/28 08:18:27;;;;;;;18.73;12.38;;;5.00;99.90;;;;;;5079135;28;20070;-74
2021/01/28 08:21:07;;;;;;;14.48;10.55;;;5.20;99.90;;;;;;5077812;28;20028;-74
2021/01/28 08:23:34;;;;;;;16.60;11.98;;;5.20;99.90;;;;;;5071956;28;20043;-74
2021/01/28 08:26:11;;;;;;;19.02;11.40;;;5.20;99.90;;;;;;5072074;28;20028;-74
2021/01/28 08:28:39;;;;;;;14.27;11.50;;;5.20;99.90;;;;;;5081202;28;20013;-76
2021/01/28 08:31:19;;;;;;;17.38;11.95;;;5.40;99.90;;;;;;5079760;28;20027;-73
2021/01/28 08:33:48;;;;;;;17.40;12.07;;;5.40;99.90;;;;;;5074261;28;20103;-74
2021/01/28 08:36:43;;;;;;;13.63;11.10;;;5.50;99.90;;;;;;5071363;28;20031;-74
2021/01/28 08:39:39;;;;;;;22.02;11.75;;;5.60;99.90;;;;;;5065467;28;20528;-74
2021/01/28 08:42:06;;;;;;;18.77;11.65;;;5.70;99.90;;;;;;5063943;28;20036;-72
2021/01/28 08:44:34;;;;;;;14.07;11.75;;;5.90;99.90;;;;;;5071154;28;20039;-72
2021/01/28 08:47:23;;;;;;;16.80;12.25;;;6.00;99.90;;;;;;5072011;28;20500;-72
2021/01/28 08:50:19;;;;;;;20.50;12.85;;;6.00;99.90;;;;;;5073412;28;20025;-74
2021/01/28 08:52:46;;;;;;;21.73;13.32;;;6.10;99.90;;;;;;5073372;28;20456;-72
2021/01/28 08:55:24;;;;;;;17.77;12.15;;;6.10;99.90;;;;;;5073479;28;20021;-77
2021/01/28 08:57:51;;;;;;;20.40;13.25;;;6.20;99.90;;;;;;5072220;28;20021;-72
2021/01/28 09:00:21;;;;;;;18.45;12.38;;;6.20;99.90;;;;;;5072739;28;20049;-73
2021/01/28 09:02:51;;;;;;;15.27;11.18;;;6.30;99.90;;;;;;5073221;28;20028;-73
2021/01/28 09:05:29;;;;;;;19.27;14.48;;;6.30;99.90;;;;;;5071485;28;20412;-72
2021/01/28 09:07:58;;;;;;;19.08;13.43;;;6.50;99.90;;;;;;5053485;28;20176;-72
2021/01/28 09:10:41;;;;;;;23.33;13.85;;;6.50;99.90;;;;;;5062499;28;20025;-72
2021/01/28 09:13:33;;;;;;;15.50;12.25;;;6.60;99.90;;;;;;5072751;28;20025;-72
2021/01/28 09:16:15;;;;;;;19.52;12.77;;;6.70;99.90;;;;;;5070169;28;20032;-72
2021/01/28 09:18:45;;;;;;;22.73;13.10;;;6.60;99.90;;;;;;5072885;28;20505;-72
2021/01/28 09:21:21;;;;;;;19.35;13.40;;;6.70;99.90;;;;;;5072992;28;20063;-72
2021/01/28 09:23:55;;;;;;;20.75;13.02;;;6.80;99.90;;;;;;5073359;28;20027;-72
2021/01/28 09:26:32;;;;;;;17.38;12.80;;;6.80;99.90;;;;;;5072126;28;20021;-73
2021/01/28 09:29:37;;;;;;;22.70;15.32;;;6.80;99.90;;;;;;5072490;28;20029;-72
2021/01/28 09:32:26;;;;;;;18.50;13.32;;;6.80;99.90;;;;;;5052793;28;20033;-74
2021/01/28 09:35:14;;;;;;;16.40;12.77;;;6.90;99.90;;;;;;5079866;28;20035;-72
2021/01/28 09:37:42;;;;;;;14.93;12.57;;;7.10;99.90;;;;;;5080402;28;20020;-73
2021/01/28 09:40:22;;;;;;;17.40;13.48;;;7.40;99.90;;;;;;5071515;28;20025;-73
2021/01/28 09:42:48;;;;;;;16.02;12.30;;;7.60;99.90;;;;;;5082215;28;20028;-73
2021/01/28 09:45:24;;;;;;;14.57;12.15;;;7.90;99.90;;;;;;5093161;28;20538;-73
2021/01/28 09:47:53;;;;;;;13.10;11.05;;;8.00;99.90;;;;;;5093508;28;20016;-74
2021/01/28 09:50:20;;;;;;;13.25;11.55;;;8.00;99.90;;;;;;5084081;28;20032;-73
2021/01/28 09:52:49;;;;;;;17.15;12.10;;;8.10;99.90;;;;;;5071690;28;20024;-73
2021/01/28 09:55:21;;;;;;;13.52;11.07;;;8.20;99.90;;;;;;5073647;28;20028;-73
2021/01/28 09:57:48;;;;;;;20.27;12.75;;;8.50;99.90;;;;;;5073053;28;20105;-73
2021/01/28 10:00:19;;;;;;;13.07;11.65;;;8.60;99.90;;;;;;5073061;28;20483;-74
2021/01/28 10:02:55;;;;;;;21.85;12.75;;;8.90;99.90;;;;;;5073132;28;20086;-74
2021/01/28 10:05:23;;;;;;;14.35;12.90;;;8.90;99.90;;;;;;5072884;28;20028;-73
2021/01/28 10:07:49;;;;;;;12.77;11.45;;;8.90;99.90;;;;;;5072850;28;20532;-73
2021/01/28 10:10:21;;;;;;;12.32;11.00;;;8.90;99.90;;;;;;5068117;28;20412;-73
2021/01/28 10:12:48;;;;;;;12.48;11.20;;;8.90;99.90;;;;;;5073389;28;20024;-74
2021/01/28 10:15:15;;;;;;;14.55;11.23;;;8.60;99.90;;;;;;5074853;28;20490;-74
2021/01/28 10:17:44;;;;;;;15.18;10.70;;;8.70;99.90;;;;;;5066147;28;20037;-73
2021/01/28 10:20:11;;;;;;;13.32;9.55;;;8.80;99.90;;;;;;5051668;28;20052;-73
2021/01/28 10:23:14;;;;;;;14.15;10.93;;;8.90;99.90;;;;;;5074814;28;20032;-74
2021/01/28 10:25:43;;;;;;;;;;;9.00;99.90;;;;;;5078215;28;20028;-73
2021/01/28 10:28:18;;;;;;;12.93;9.68;;;9.10;99.90;;;;;;5075561;28;19949;-73
2021/01/28 10:30:44;;;;;;;13.02;10.10;;;9.20;99.90;;;;;;5079269;28;20637;-74
2021/01/28 10:33:11;;;;;;;13.10;10.25;;;9.20;99.90;;;;;;5073185;28;20039;-73
2021/01/28 10:35:43;;;;;;;11.20;10.00;;;9.20;99.90;;;;;;5065801;28;20410;-73
2021/01/28 10:38:10;;;;;;;10.98;9.32;;;9.20;99.90;;;;;;5075407;28;20024;-73
2021/01/28 10:40:36;;;;;;;12.07;9.18;;;9.30;99.90;;;;;;5076363;28;20422;-74
2021/01/28 10:43:06;;;;;;;12.07;9.32;;;9.30;99.90;;;;;;5076981;28;20017;-73
2021/01/28 10:45:35;;;;;;;15.95;9.95;;;9.40;99.90;;;;;;5076576;28;20021;-73
2021/01/28 10:48:01;;;;;;;11.18;10.05;;;9.50;99.90;;;;;;5076637;28;20025;-73
2021/01/28 10:50:29;;;;;;;12.75;9.40;;;9.50;99.90;;;;;;5075817;28;20036;-72
2021/01/28 10:52:55;;;;;;;14.40;10.32;;;9.50;99.90;;;;;;5076337;28;20074;-73
2021/01/28 10:55:24;;;;;;;15.40;11.07;;;9.60;99.90;;;;;;5076673;28;20375;-73
2021/01/28 10:57:50;;;;;;;12.13;10.80;;;9.60;99.90;;;;;;5075866;28;20056;-73
2021/01/28 11:00:17;;;;;;;17.40;11.07;;;9.80;99.90;;;;;;5074688;28;20035;-73
2021/01/28 11:02:43;;;;;;;12.57;11.25;;;9.90;99.90;;;;;;5074772;28;20249;-73
2021/01/28 11:05:20;;;;;;;11.63;10.52;;;9.80;99.90;;;;;;5075837;28;20105;-74
2021/01/28 11:07:46;;;;;;;13.70;11.63;;;9.70;99.90;;;;;;5076267;28;20095;-73
2021/01/28 11:10:13;;;;;;;11.05;9.85;;;9.80;99.90;;;;;;5079291;28;20173;-74
2021/01/28 11:12:39;;;;;;;17.20;10.05;;;9.80;99.90;;;;;;5078339;28;20028;-73
2021/01/28 11:15:06;;;;;;;11.00;9.35;;;9.80;99.90;;;;;;5075537;28;20056;-73
2021/01/28 11:17:32;;;;;;;11.40;9.32;;;9.90;99.90;;;;;;5075940;28;20032;-73
2021/01/28 11:19:58;;;;;;;12.38;10.15;;;10.00;99.90;;;;;;5075408;28;20367;-74
2021/01/28 11:22:24;;;;;;;10.25;9.15;;;9.90;99.90;;;;;;5075950;28;20025;-73
2021/01/28 11:24:51;;;;;;;9.50;8.20;;;10.00;99.90;;;;;;5075723;28;20436;-73
2021/01/28 11:27:17;;;;;;;12.65;8.70;;;9.80;99.90;;;;;;5075261;28;20103;-73
2021/01/28 11:29:43;;;;;;;9.32;7.72;;;9.70;99.90;;;;;;5071636;28;20024;-74
2021/01/28 11:32:09;;;;;;;14.10;8.25;;;9.70;99.90;;;;;;5055124;28;20025;-73
2021/01/28 11:34:35;;;;;;;11.65;9.70;;;9.70;99.90;;;;;;5055628;28;20025;-74
2021/01/28 11:37:01;;;;;;;12.25;8.70;;;9.80;99.90;;;;;;5071973;28;20025;-73
2021/01/28 11:39:27;;;;;;;14.27;8.73;;;9.80;99.90;;;;;;5076291;28;20082;-73
2021/01/28 11:41:53;;;;;;;9.10;7.85;;;9.90;99.90;;;;;;5075271;28;20048;-73
2021/01/28 11:44:19;;;;;;;10.35;8.82;;;10.00;99.90;;;;;;5075434;28;20020;-73
2021/01/28 11:46:45;;;;;;;13.38;8.75;;;10.00;99.90;;;;;;5075154;28;20047;-74
2021/01/28 11:49:13;;;;;;;10.43;9.27;;;10.00;99.90;;;;;;5075196;28;20320;-74
2021/01/28 11:51:39;;;;;;;10.20;8.75;;;10.00;99.90;;;;;;5075226;28;20033;-73
2021/01/28 11:54:05;;;;;;;11.13;8.65;;;10.00;99.90;;;;;;5075194;28;20025;-73
2021/01/28 11:56:31;;;;;;;10.75;8.75;;;10.00;99.90;;;;;;5074543;28;20073;-73
2021/01/28 11:58:57;;;;;;;13.25;8.85;;;9.90;99.90;;;;;;5075280;28;20098;-73
2021/01/28 12:01:23;;;;;;;13.73;10.68;;;9.90;99.90;;;;;;5075403;28;20020;-73
2021/01/28 12:03:49;;;;;;;10.85;8.85;;;10.10;99.90;;;;;;5075616;28;20032;-73
2021/01/28 12:06:18;;;;;;;11.68;10.55;;;10.00;99.90;;;;;;5074517;28;20031;-72
2021/01/28 12:08:44;;;;;;;12.32;9.25;;;10.10;99.90;;;;;;5073794;28;20032;-73
2021/01/28 12:11:10;;;;;;;13.60;9.65;;;10.00;99.90;;;;;;5075031;28;20020;-72
2021/01/28 12:13:36;;;;;;;10.98;9.43;;;9.90;99.90;;;;;;5073508;28;20036;-73
2021/01/28 12:16:02;;;;;;;10.43;9.43;;;9.90;99.90;;;;;;5073801;28;20028;-73
2021/01/28 12:18:28;;;;;;;11.02;9.32;;;9.90;99.90;;;;;;5073957;28;20054;-73
2021/01/28 12:20:54;;;;;;;9.95;9.05;;;9.80;99.90;;;;;;5073676;28;20036;-73
2021/01/28 12:23:20;;;;;;;15.85;9.98;;;9.80;99.90;;;;;;5074552;28;20070;-72
2021/01/28 12:25:46;;;;;;;20.38;10.63;;;9.70;99.90;;;;;;5073667;28;20052;-73
2021/01/28 12:28:12;;;;;;;10.80;9.80;;;9.60;99.90;;;;;;5074254;28;20035;-73
2021/01/28 12:30:38;;;;;;;11.82;9.27;;;9.50;99.90;;;;;;5073238;28;20514;-73
2021/01/28 12:33:04;;;;;;;12.10;9.90;;;9.50;99.90;;;;;;5075842;28;20024;-73
2021/01/28 12:35:30;;;;;;;11.82;9.18;;;9.50;99.90;;;;;;5073827;28;20077;-73
2021/01/28 12:37:56;;;;;;;11.30;9.38;;;9.40;99.90;;;;;;5074196;28;20035;-73
2021/01/28 12:40:22;;;;;;;11.82;9.38;;;9.30;99.90;;;;;;5072709;28;20115;-73
2021/01/28 12:42:48;;;;;;;9.88;8.85;;;9.30;99.90;;;;;;5074252;28;20028;-73
2021/01/28 12:45:14;;;;;;;14.95;8.90;;;9.40;99.90;;;;;;5075394;28;20107;-73
2021/01/28 12:47:40;;;;;;;8.98;8.05;;;9.60;99.90;;;;;;5074154;28;20479;-73
2021/01/28 12:50:08;;;;;;;9.95;9.00;;;9.60;99.90;;;;;;5072373;28;20036;-73
2021/01/28 12:52:35;;;;;;;10.35;9.20;;;9.60;99.90;;;;;;5073723;28;20024;-73
2021/01/28 12:55:09;;;;;;;10.05;8.52;;;9.60;99.90;;;;;;5073492;28;20025;-73
2021/01/28 12:57:36;;;;;;;10.45;8.32;;;9.60;99.90;;;;;;5073415;28;20025;-73
2021/01/28 13:00:15;;;;;;;9.70;8.60;;;9.50;99.90;;;;;;5073189;28;20025;-73
2021/01/28 13:02:41;;;;;;;10.57;7.88;;;9.40;99.90;;;;;;5073935;28;20570;-72
2021/01/28 13:05:07;;;;;;;13.00;8.30;;;9.40;99.90;;;;;;5073069;28;20103;-73
2021/01/28 13:07:34;;;;;;;16.38;8.30;;;9.40;99.90;;;;;;5073053;28;20024;-73
2021/01/28 13:09:59;;;;;;;12.00;8.65;;;9.30;99.90;;;;;;5071858;28;20028;-73
2021/01/28 13:12:33;;;;;;;9.38;8.45;;;9.30;99.90;;;;;;5073520;28;20050;-72
2021/01/28 13:15:05;;;;;;;7.75;7.03;;;9.30;99.90;;;;;;5072245;28;20154;-73